createdAt,value
2018-06-11T00:01:39.534Z,19.70
2018-06-11T00:04:07.821Z,19.60
2018-06-11T00:06:36.119Z,19.50
2018-06-11T00:09:07.175Z,19.50
2018-06-11T00:11:35.864Z,19.50
2018-06-11T00:14:04.250Z,19.60
2018-06-11T00:16:33.093Z,19.50
2018-06-11T00:19:01.410Z,19.40
2018-06-11T00:21:29.774Z,19.30
2018-06-11T00:23:58.058Z,19.30
2018-06-11T00:26:26.366Z,19.30
2018-06-11T00:28:54.667Z,19.30
2018-06-11T00:31:22.961Z,19.40
2018-06-11T00:33:51.237Z,19.40
2018-06-11T00:36:19.527Z,19.40
2018-06-11T00:38:47.821Z,19.40
2018-06-11T00:41:16.118Z,19.40
2018-06-11T00:43:44.433Z,19.40
2018-06-11T00:46:12.724Z,19.40
2018-06-11T00:48:41.019Z,19.30
2018-06-11T00:51:09.340Z,19.10
2018-06-11T00:53:37.670Z,19.00
2018-06-11T00:56:08.284Z,18.80
2018-06-11T00:58:36.625Z,18.80
2018-06-11T01:01:05.367Z,18.70
2018-06-11T01:03:33.753Z,18.60
2018-06-11T01:06:02.097Z,18.50
2018-06-11T01:10:58.884Z,18.60
2018-06-11T01:13:27.217Z,18.70
2018-06-11T01:15:55.522Z,18.70
2018-06-11T01:18:23.808Z,18.70
2018-06-11T01:20:52.128Z,18.70
2018-06-11T01:23:20.447Z,18.70
2018-06-11T01:25:48.750Z,18.70
2018-06-11T01:28:17.062Z,18.80
2018-06-11T01:30:45.337Z,18.70
2018-06-11T01:33:13.653Z,18.70
2018-06-11T01:35:41.962Z,18.70
2018-06-11T01:38:11.018Z,18.70
2018-06-11T01:40:39.340Z,18.70
2018-06-11T01:43:07.665Z,18.80
2018-06-11T01:45:35.955Z,18.80
2018-06-11T01:48:04.286Z,18.80
2018-06-11T01:50:32.589Z,18.80
2018-06-11T01:53:01.545Z,18.80
2018-06-11T01:55:29.833Z,18.70
2018-06-11T01:57:58.174Z,18.70
2018-06-11T02:00:26.457Z,18.70
2018-06-11T02:02:54.740Z,18.70
2018-06-11T02:05:23.043Z,18.70
2018-06-11T02:07:51.341Z,18.80
2018-06-11T02:12:50.681Z,18.60
2018-06-11T02:15:19.017Z,18.60
2018-06-11T02:17:47.300Z,18.60
2018-06-11T02:20:15.604Z,18.60
2018-06-11T02:22:43.874Z,18.70
2018-06-11T02:25:12.191Z,18.60
2018-06-11T02:27:47.102Z,18.50
2018-06-11T02:30:15.432Z,18.40
2018-06-11T02:32:50.130Z,18.30
2018-06-11T02:35:18.441Z,18.20
2018-06-11T02:37:46.750Z,18.20
2018-06-11T02:40:15.047Z,18.30
2018-06-11T02:42:43.350Z,18.30
2018-06-11T02:45:11.715Z,18.20
2018-06-11T02:47:40.038Z,18.20
2018-06-11T02:50:08.328Z,18.20
2018-06-11T02:55:04.756Z,18.30
2018-06-11T02:57:33.671Z,18.40
2018-06-11T03:00:02.000Z,18.40
2018-06-11T03:02:30.303Z,18.40
2018-06-11T03:04:58.600Z,18.30
2018-06-11T03:07:26.890Z,18.20
2018-06-11T03:09:55.179Z,18.20
2018-06-11T03:12:23.489Z,18.10
2018-06-11T03:14:51.784Z,18.10
2018-06-11T03:17:20.130Z,18.10
2018-06-11T03:19:48.454Z,18.10
2018-06-11T03:22:16.747Z,18.10
2018-06-11T03:24:45.105Z,18.10
2018-06-11T03:27:13.425Z,18.20
2018-06-11T03:29:41.705Z,18.20
2018-06-11T03:32:09.998Z,18.20
2018-06-11T03:34:38.308Z,18.20
2018-06-11T03:37:06.613Z,18.20
2018-06-11T03:39:34.889Z,18.20
2018-06-11T03:42:03.197Z,18.40
2018-06-11T03:44:31.510Z,18.50
2018-06-11T03:46:59.785Z,18.60
2018-06-11T03:49:28.073Z,18.60
2018-06-11T03:51:56.395Z,18.60
2018-06-11T03:54:24.713Z,18.80
2018-06-11T03:56:53.028Z,18.90
2018-06-11T03:59:21.344Z,19.00
2018-06-11T04:01:49.637Z,19.10
2018-06-11T04:04:17.940Z,19.30
2018-06-11T04:06:46.254Z,19.30
2018-06-11T04:09:14.545Z,19.50
2018-06-11T04:11:42.850Z,19.70
2018-06-11T04:14:11.166Z,19.80
2018-06-11T04:16:39.482Z,20.00
2018-06-11T04:19:07.920Z,20.20
2018-06-11T04:21:36.206Z,20.30
2018-06-11T04:24:04.827Z,20.50
2018-06-11T04:26:33.129Z,20.50
2018-06-11T04:29:01.459Z,20.60
2018-06-11T04:31:29.790Z,20.70
2018-06-11T04:33:58.090Z,20.90
2018-06-11T04:36:26.395Z,21.00
2018-06-11T04:38:54.700Z,21.20
2018-06-11T04:41:23.020Z,21.30
2018-06-11T04:43:51.335Z,21.60
2018-06-11T04:46:19.626Z,21.70
2018-06-11T04:48:47.926Z,21.80
2018-06-11T04:51:16.265Z,21.90
2018-06-11T04:53:44.542Z,22.00
2018-06-11T04:56:12.837Z,22.00
2018-06-11T04:58:41.117Z,22.00
2018-06-11T05:01:09.420Z,22.10
2018-06-11T05:03:37.731Z,22.10
2018-06-11T05:06:06.018Z,22.20
2018-06-11T05:08:34.285Z,22.20
2018-06-11T05:11:02.582Z,22.20
2018-06-11T05:13:30.894Z,22.30
2018-06-11T05:15:59.206Z,22.40
2018-06-11T05:18:27.465Z,22.50
2018-06-11T05:23:23.761Z,22.80
2018-06-11T05:25:52.047Z,22.90
2018-06-11T05:28:20.361Z,23.10
2018-06-11T05:30:48.652Z,23.30
2018-06-11T05:33:16.971Z,23.50
2018-06-11T05:35:45.294Z,23.60
2018-06-11T05:38:13.612Z,23.60
2018-06-11T05:40:41.900Z,23.50
2018-06-11T05:43:10.197Z,23.50
2018-06-11T05:45:38.474Z,23.40
2018-06-11T05:48:06.813Z,23.40
2018-06-11T05:50:35.115Z,23.40
2018-06-11T05:53:03.432Z,23.40
2018-06-11T05:55:31.721Z,23.40
2018-06-11T05:58:00.032Z,23.30
2018-06-11T06:00:28.321Z,23.50
2018-06-11T06:02:56.625Z,23.50
2018-06-11T06:05:24.926Z,23.60
2018-06-11T06:07:53.214Z,23.70
2018-06-11T06:10:21.489Z,23.80
2018-06-11T06:12:49.791Z,23.80
2018-06-11T06:15:18.080Z,23.80
2018-06-11T06:17:46.390Z,23.80
2018-06-11T06:20:14.685Z,23.80
2018-06-11T06:22:42.960Z,23.80
2018-06-11T06:25:11.238Z,23.80
2018-06-11T06:27:39.551Z,23.90
2018-06-11T06:30:08.363Z,23.90
2018-06-11T06:32:37.015Z,24.00
2018-06-11T06:35:05.753Z,24.10
2018-06-11T06:37:34.154Z,24.10
2018-06-11T06:40:02.488Z,24.20
2018-06-11T06:42:30.814Z,24.30
2018-06-11T06:44:59.104Z,24.40
2018-06-11T06:47:27.379Z,24.50
2018-06-11T06:49:55.681Z,24.60
2018-06-11T06:52:23.973Z,24.70
2018-06-11T06:54:52.269Z,24.70
2018-06-11T06:57:20.671Z,24.80
2018-06-11T06:59:48.934Z,24.80
2018-06-11T07:02:17.210Z,24.90
2018-06-11T07:04:45.494Z,25.10
2018-06-11T07:07:13.779Z,25.00
2018-06-11T07:09:42.140Z,25.00
2018-06-11T07:12:10.404Z,25.00
2018-06-11T07:14:38.715Z,25.30
2018-06-11T07:17:07.013Z,25.40
2018-06-11T07:19:35.310Z,25.40
2018-06-11T07:22:03.626Z,25.30
2018-06-11T07:24:31.921Z,25.50
2018-06-11T07:27:00.221Z,25.60
2018-06-11T07:29:28.536Z,25.60
2018-06-11T07:31:56.807Z,25.50
2018-06-11T07:34:25.109Z,25.30
2018-06-11T07:36:53.523Z,25.40
2018-06-11T07:39:21.812Z,25.40
2018-06-11T07:41:50.084Z,25.50
2018-06-11T07:44:18.413Z,25.60
2018-06-11T07:46:46.740Z,25.90
2018-06-11T07:49:15.013Z,26.00
2018-06-11T07:51:43.390Z,26.20
2018-06-11T07:54:11.630Z,26.30
2018-06-11T07:56:39.922Z,26.40
2018-06-11T07:59:08.234Z,26.50
2018-06-11T08:01:36.537Z,26.60
2018-06-11T08:04:04.833Z,26.60
2018-06-11T08:06:33.166Z,26.50
2018-06-11T08:09:01.454Z,26.40
2018-06-11T08:11:29.742Z,26.40
2018-06-11T08:13:58.042Z,26.50
2018-06-11T08:16:26.346Z,26.60
2018-06-11T08:18:54.635Z,26.70
2018-06-11T08:21:22.916Z,26.80
2018-06-11T08:23:51.201Z,26.80
2018-06-11T08:26:19.482Z,26.90
2018-06-11T08:28:47.779Z,26.90
2018-06-11T08:31:16.096Z,26.90
2018-06-11T08:33:44.360Z,27.00
2018-06-11T08:36:12.654Z,27.10
2018-06-11T08:38:40.946Z,27.10
2018-06-11T08:41:09.247Z,27.30
2018-06-11T08:43:38.218Z,27.40
2018-06-11T08:46:06.527Z,27.50
2018-06-11T08:48:34.808Z,27.60
2018-06-11T08:51:03.123Z,27.60
2018-06-11T08:53:31.418Z,27.50
2018-06-11T08:55:59.857Z,27.30
2018-06-11T08:58:28.340Z,27.10
2018-06-11T09:00:56.656Z,27.30
2018-06-11T09:03:24.964Z,27.40
2018-06-11T09:05:53.251Z,27.70
2018-06-11T09:08:21.554Z,27.70
2018-06-11T09:10:50.017Z,27.70
2018-06-11T09:13:18.289Z,27.80
2018-06-11T09:15:46.581Z,27.80
2018-06-11T09:18:15.067Z,27.90
2018-06-11T09:20:43.280Z,27.90
2018-06-11T09:23:11.571Z,27.60
2018-06-11T09:25:39.861Z,27.70
2018-06-11T09:28:08.154Z,27.80
2018-06-11T09:30:36.437Z,27.70
2018-06-11T09:33:04.722Z,27.90
2018-06-11T09:35:33.027Z,27.90
2018-06-11T09:38:01.316Z,27.90
2018-06-11T09:40:29.651Z,28.10
2018-06-11T09:42:57.998Z,28.00
2018-06-11T09:45:26.313Z,28.00
2018-06-11T09:47:54.597Z,28.00
2018-06-11T09:50:22.882Z,28.10
2018-06-11T09:52:51.167Z,28.10
2018-06-11T09:55:19.795Z,28.20
2018-06-11T09:57:48.114Z,28.30
2018-06-11T10:00:21.808Z,28.30
2018-06-11T10:02:50.092Z,28.30
2018-06-11T10:05:18.380Z,28.30
2018-06-11T10:07:46.738Z,28.30
2018-06-11T10:10:15.079Z,28.10
2018-06-11T10:12:43.388Z,27.80
2018-06-11T10:15:11.697Z,27.90
2018-06-11T10:17:40.022Z,27.90
2018-06-11T10:20:08.301Z,27.80
2018-06-11T10:22:36.589Z,27.70
2018-06-11T10:25:05.074Z,27.70
2018-06-11T10:27:33.478Z,27.80
2018-06-11T10:30:01.760Z,27.90
2018-06-11T10:32:30.411Z,28.20
2018-06-11T10:34:58.682Z,28.40
2018-06-11T10:37:26.977Z,28.60
2018-06-11T10:39:55.300Z,28.60
2018-06-11T10:42:23.585Z,28.60
2018-06-11T10:44:52.026Z,28.70
2018-06-11T10:47:20.555Z,28.60
2018-06-11T10:49:48.841Z,28.70
2018-06-11T10:52:17.123Z,28.80
2018-06-11T10:54:45.586Z,28.90
2018-06-11T10:57:13.898Z,29.00
2018-06-11T10:59:42.186Z,28.70
2018-06-11T11:02:10.465Z,28.80
2018-06-11T11:04:38.803Z,28.80
2018-06-11T11:07:07.060Z,28.50
2018-06-11T11:09:35.585Z,28.40
2018-06-11T11:12:04.166Z,28.50
2018-06-11T11:14:32.475Z,28.60
2018-06-11T11:17:00.784Z,28.80
2018-06-11T11:19:29.073Z,28.80
2018-06-11T11:21:57.614Z,28.80
2018-06-11T11:24:25.884Z,28.80
2018-06-11T11:26:54.468Z,29.20
2018-06-11T11:29:23.109Z,29.30
2018-06-11T11:31:51.425Z,29.40
2018-06-11T11:34:19.869Z,29.40
2018-06-11T11:36:48.165Z,29.60
2018-06-11T11:39:16.463Z,29.60
2018-06-11T11:41:44.761Z,29.40
2018-06-11T11:44:13.053Z,29.30
2018-06-11T11:46:41.341Z,29.40
2018-06-11T11:49:09.641Z,29.60
2018-06-11T11:51:37.970Z,29.50
2018-06-11T11:54:06.452Z,29.50
2018-06-11T11:56:34.728Z,29.40
2018-06-11T11:59:03.055Z,29.50
2018-06-11T12:01:31.582Z,29.60
2018-06-11T12:04:00.298Z,29.70
2018-06-11T12:06:28.697Z,29.60
2018-06-11T12:08:57.012Z,29.50
2018-06-11T12:11:25.314Z,29.40
2018-06-11T12:13:53.647Z,29.20
2018-06-11T12:16:21.946Z,29.10
2018-06-11T12:18:50.248Z,29.10
2018-06-11T12:21:18.545Z,29.40
2018-06-11T12:23:46.870Z,29.40
2018-06-11T12:28:43.455Z,29.60
2018-06-11T12:31:11.741Z,29.50
2018-06-11T12:33:40.033Z,29.70
2018-06-11T12:36:08.356Z,29.60
2018-06-11T12:38:36.829Z,29.70
2018-06-11T12:41:05.218Z,29.50
2018-06-11T12:43:33.550Z,29.70
2018-06-11T12:46:01.864Z,29.70
2018-06-11T12:48:30.220Z,29.80
2018-06-11T12:50:58.510Z,30.20
2018-06-11T12:53:26.950Z,30.00
2018-06-11T12:55:55.297Z,29.90
2018-06-11T12:58:23.622Z,30.10
2018-06-11T13:00:51.998Z,30.10
2018-06-11T13:03:20.298Z,29.80
2018-06-11T13:05:48.717Z,30.00
2018-06-11T13:08:17.015Z,30.10
2018-06-11T13:10:45.632Z,30.00
2018-06-11T13:13:14.241Z,29.90
2018-06-11T13:15:42.538Z,29.80
2018-06-11T13:18:11.016Z,29.70
2018-06-11T13:20:39.298Z,29.60
2018-06-11T13:23:07.748Z,29.60
2018-06-11T13:25:36.257Z,29.40
2018-06-11T13:28:04.561Z,29.50
2018-06-11T13:30:33.181Z,29.50
2018-06-11T13:33:01.430Z,29.20
2018-06-11T13:35:29.801Z,29.10
2018-06-11T13:37:58.092Z,29.00
2018-06-11T13:40:26.495Z,28.90
2018-06-11T13:42:54.895Z,28.80
2018-06-11T13:45:23.182Z,28.60
2018-06-11T13:47:51.494Z,28.40
2018-06-11T13:50:19.853Z,28.30
2018-06-11T13:52:48.086Z,28.10
2018-06-11T13:55:16.616Z,27.90
2018-06-11T13:57:44.909Z,28.00
2018-06-11T14:00:13.313Z,27.90
2018-06-11T14:02:41.924Z,27.80
2018-06-11T14:05:10.265Z,27.80
2018-06-11T14:07:38.559Z,27.70
2018-06-11T14:10:06.866Z,27.60
2018-06-11T14:12:35.166Z,27.60
2018-06-11T14:15:03.486Z,27.50
2018-06-11T14:17:31.890Z,27.40
2018-06-11T14:20:00.442Z,27.40
2018-06-11T14:22:28.749Z,27.60
2018-06-11T14:24:57.030Z,27.80
2018-06-11T14:27:25.353Z,28.00
2018-06-11T14:29:53.639Z,28.30
2018-06-11T14:32:21.929Z,28.50
2018-06-11T14:34:50.223Z,28.60
2018-06-11T14:37:18.526Z,28.90
2018-06-11T14:39:46.805Z,29.10
2018-06-11T14:42:15.367Z,29.30
2018-06-11T14:44:43.818Z,29.40
2018-06-11T14:47:12.107Z,29.80
2018-06-11T14:49:40.608Z,29.80
2018-06-11T14:52:08.933Z,30.00
2018-06-11T14:54:37.226Z,29.90
2018-06-11T14:57:05.508Z,29.90
2018-06-11T14:59:33.787Z,29.80
2018-06-11T15:02:02.098Z,29.80
2018-06-11T15:04:30.760Z,29.70
2018-06-11T16:06:04.330Z,30.90
2018-06-11T16:08:32.686Z,29.50
2018-06-11T16:11:01.027Z,28.80
2018-06-11T16:13:29.340Z,28.30
2018-06-11T16:15:57.645Z,27.90
2018-06-11T16:18:26.006Z,27.70
2018-06-11T16:20:54.301Z,27.50
2018-06-11T16:23:22.618Z,27.40
2018-06-11T16:25:50.968Z,27.40
2018-06-11T16:28:19.317Z,27.30
2018-06-11T16:30:47.632Z,27.20
2018-06-11T16:33:15.948Z,27.20
2018-06-11T16:35:44.257Z,27.10
2018-06-11T16:38:12.578Z,27.10
2018-06-11T16:40:40.877Z,27.00
2018-06-11T16:43:09.181Z,26.90
2018-06-11T16:45:37.503Z,26.90
2018-06-11T16:48:05.956Z,26.80
2018-06-11T16:50:34.273Z,26.80
2018-06-11T16:53:02.565Z,26.70
2018-06-11T16:55:30.901Z,26.70
2018-06-11T16:57:59.251Z,26.70
2018-06-11T17:00:28.242Z,26.60
2018-06-11T17:02:56.738Z,26.70
2018-06-11T17:05:25.037Z,26.60
2018-06-11T17:07:53.340Z,26.70
2018-06-11T17:10:21.664Z,26.60
2018-06-11T17:12:50.026Z,26.50
2018-06-11T17:15:18.337Z,26.50
2018-06-11T17:17:46.689Z,26.50
2018-06-11T17:20:15.646Z,26.40
2018-06-11T17:22:44.497Z,26.20
2018-06-11T17:25:13.078Z,26.10
2018-06-11T17:27:41.393Z,26.00
2018-06-11T17:30:09.733Z,26.00
2018-06-11T17:32:38.054Z,25.90
2018-06-11T17:35:06.345Z,25.80
2018-06-11T17:37:34.661Z,25.50
2018-06-11T17:42:31.714Z,25.20
2018-06-11T17:45:00.027Z,25.00
2018-06-11T17:47:28.345Z,24.80
2018-06-11T17:49:56.647Z,24.70
2018-06-11T17:52:24.952Z,24.60
2018-06-11T17:54:53.357Z,24.40
2018-06-11T17:57:21.721Z,24.20
2018-06-11T17:59:50.006Z,24.10
2018-06-11T18:02:18.377Z,24.00
2018-06-11T18:04:46.782Z,23.90
2018-06-11T18:07:15.027Z,23.80
2018-06-11T18:09:43.336Z,23.70
2018-06-11T18:12:11.611Z,23.50
2018-06-11T18:14:39.936Z,23.50
2018-06-11T18:17:08.212Z,23.50
2018-06-11T18:19:36.492Z,23.50
2018-06-11T18:22:04.868Z,23.50
2018-06-11T18:24:33.188Z,23.50
2018-06-11T18:27:01.550Z,23.50
2018-06-11T18:29:29.892Z,23.20
2018-06-11T18:31:58.185Z,22.80
2018-06-11T18:34:29.446Z,22.50
2018-06-11T18:36:57.789Z,22.30
2018-06-11T18:39:26.105Z,22.20
2018-06-11T18:41:54.436Z,22.10
2018-06-11T18:44:22.740Z,22.00
2018-06-11T18:46:51.016Z,21.80
2018-06-11T18:49:19.316Z,21.70
2018-06-11T18:51:47.605Z,21.60
2018-06-11T18:54:15.890Z,21.60
2018-06-11T18:56:44.204Z,21.60
2018-06-11T18:59:12.537Z,21.50
2018-06-11T19:01:40.845Z,21.40
2018-06-11T19:04:09.165Z,21.40
2018-06-11T19:06:37.479Z,21.30
2018-06-11T19:09:07.726Z,21.20
2018-06-11T19:11:36.037Z,21.20
2018-06-11T19:14:04.354Z,21.10
2018-06-11T19:16:32.660Z,21.10
2018-06-11T19:19:00.965Z,21.00
2018-06-11T19:21:29.265Z,20.90
2018-06-11T19:23:57.589Z,20.90
2018-06-11T19:26:25.859Z,20.80
2018-06-11T19:28:54.156Z,20.70
2018-06-11T19:31:22.457Z,20.60
2018-06-11T19:33:53.701Z,20.60
2018-06-11T19:36:22.094Z,20.50
2018-06-11T19:38:50.408Z,20.50
2018-06-11T19:41:18.809Z,20.50
2018-06-11T19:43:47.447Z,20.50
2018-06-11T19:46:15.723Z,20.50
2018-06-11T19:48:44.034Z,20.40
2018-06-11T19:51:12.358Z,20.40
2018-06-11T19:53:40.642Z,20.30
2018-06-11T19:56:08.923Z,20.30
2018-06-11T19:58:37.262Z,20.30
2018-06-11T20:01:05.617Z,20.30
2018-06-11T20:03:33.932Z,20.20
2018-06-11T20:06:02.266Z,20.10
2018-06-11T20:08:30.577Z,20.10
2018-06-11T20:13:26.918Z,20.00
2018-06-11T20:15:55.226Z,19.90
2018-06-11T20:18:23.513Z,19.90
2018-06-11T20:20:51.792Z,19.80
2018-06-11T20:23:20.095Z,19.80
2018-06-11T20:25:48.424Z,19.70
2018-06-11T20:28:16.714Z,19.70
2018-06-11T20:30:45.022Z,19.70
2018-06-11T20:33:13.335Z,19.60
2018-06-11T20:35:41.625Z,19.60
2018-06-11T20:38:09.936Z,19.60
2018-06-11T20:40:38.225Z,19.50
2018-06-11T20:43:06.546Z,19.40
2018-06-11T20:48:02.897Z,19.30
2018-06-11T20:50:31.234Z,19.20
2018-06-11T20:52:59.526Z,19.20
2018-06-11T20:55:27.819Z,19.20
2018-06-11T20:57:56.184Z,19.20
2018-06-11T21:00:24.778Z,19.20
2018-06-11T21:02:53.079Z,19.20
2018-06-11T21:05:22.033Z,19.30
2018-06-11T21:07:50.374Z,19.30
2018-06-11T21:10:18.671Z,19.30
2018-06-11T21:12:47.001Z,19.40
2018-06-11T21:15:15.328Z,19.30
2018-06-11T21:17:43.647Z,19.30
2018-06-11T21:20:11.926Z,19.30
2018-06-11T21:22:40.245Z,19.30
2018-06-11T21:25:08.577Z,19.20
2018-06-11T21:27:36.906Z,19.20
2018-06-11T21:30:05.272Z,19.10
2018-06-11T21:32:33.620Z,19.10
2018-06-11T21:37:30.026Z,19.20
2018-06-11T21:39:58.298Z,19.30
2018-06-11T21:42:26.631Z,19.30
2018-06-11T21:44:54.914Z,19.40
2018-06-11T21:47:23.185Z,19.50
2018-06-11T21:49:51.518Z,19.60
2018-06-11T21:52:19.830Z,19.60
2018-06-11T21:54:48.133Z,19.60
2018-06-11T21:57:16.485Z,19.50
2018-06-11T21:59:44.791Z,19.50
2018-06-11T22:02:13.075Z,19.30
2018-06-11T22:04:41.363Z,19.30
2018-06-11T22:07:09.658Z,19.30
2018-06-11T22:09:37.934Z,19.20
2018-06-11T22:12:06.255Z,19.10
2018-06-11T22:14:34.547Z,19.00
2018-06-11T22:17:02.867Z,19.00
2018-06-11T22:19:31.151Z,19.00
2018-06-11T22:21:59.465Z,18.90
2018-06-11T22:24:27.790Z,18.90
2018-06-11T22:26:56.093Z,18.90
2018-06-11T22:29:24.387Z,19.00
2018-06-11T22:31:52.713Z,19.00
2018-06-11T22:34:21.005Z,19.00
2018-06-11T22:36:49.283Z,19.00
2018-06-11T22:39:17.585Z,19.10
2018-06-11T22:44:13.890Z,19.10
2018-06-11T22:46:42.183Z,19.10
2018-06-11T22:49:10.469Z,19.00
2018-06-11T22:51:38.803Z,19.00
2018-06-11T22:54:07.120Z,19.00
2018-06-11T22:56:35.393Z,19.00
2018-06-11T22:59:03.693Z,19.10
2018-06-11T23:01:32.054Z,19.10
2018-06-11T23:04:00.349Z,19.20
2018-06-11T23:08:56.681Z,19.20
2018-06-11T23:11:24.972Z,19.10
2018-06-11T23:13:53.250Z,19.10
2018-06-11T23:16:21.596Z,19.00
2018-06-11T23:18:49.978Z,19.00
2018-06-11T23:21:18.319Z,19.00
2018-06-11T23:26:14.598Z,19.00
2018-06-11T23:28:42.899Z,19.00
2018-06-11T23:31:11.180Z,19.00
2018-06-11T23:33:39.487Z,18.90
2018-06-11T23:36:07.776Z,19.00
2018-06-11T23:38:36.075Z,19.00
2018-06-11T23:41:04.397Z,19.00
2018-06-11T23:43:32.813Z,18.90
2018-06-11T23:46:01.110Z,19.00
2018-06-11T23:48:29.420Z,18.90
2018-06-11T23:50:57.760Z,18.80
2018-06-11T23:53:26.067Z,18.80
2018-06-11T23:55:54.393Z,18.70
2018-06-11T23:58:22.706Z,18.60
